sensor_id;sensor_type;location;lat;lon;timestamp;temperature;humidity
7574;DHT22;3828;48.922;9.116;2022-09-09T00:00:54;18.90;99.90
7574;DHT22;3828;48.922;9.116;2022-09-09T00:03:25;15.10;99.90
7574;DHT22;3828;48.922;9.116;2022-09-09T00:05:58;15.10;99.90
7574;DHT22;3828;48.922;9.116;2022-09-09T00:08:35;18.90;99.90
7574;DHT22;3828;48.922;9.116;2022-09-09T00:11:03;15.20;99.90
7574;DHT22;3828;48.922;9.116;2022-09-09T00:13:37;15.30;99.90
7574;DHT22;3828;48.922;9.116;2022-09-09T00:16:13;15.30;99.90
7574;DHT22;3828;48.922;9.116;2022-09-09T00:18:52;15.40;99.90
7574;DHT22;3828;48.922;9.116;2022-09-09T00:21:26;15.40;99.90
7574;DHT22;3828;48.922;9.116;2022-09-09T00:23:57;15.70;99.90
7574;DHT22;3828;48.922;9.116;2022-09-09T00:26:32;15.60;99.90
7574;DHT22;3828;48.922;9.116;2022-09-09T00:29:14;15.60;99.90
7574;DHT22;3828;48.922;9.116;2022-09-09T00:31:54;15.70;99.90
7574;DHT22;3828;48.922;9.116;2022-09-09T00:34:32;15.70;99.90
7574;DHT22;3828;48.922;9.116;2022-09-09T00:37:02;15.70;99.90
7574;DHT22;3828;48.922;9.116;2022-09-09T00:39:34;15.80;99.90
7574;DHT22;3828;48.922;9.116;2022-09-09T00:42:13;15.80;99.90
7574;DHT22;3828;48.922;9.116;2022-09-09T00:44:51;15.80;99.90
7574;DHT22;3828;48.922;9.116;2022-09-09T00:47:34;15.80;99.90
7574;DHT22;3828;48.922;9.116;2022-09-09T00:50:17;15.80;99.90
7574;DHT22;3828;48.922;9.116;2022-09-09T00:52:52;15.80;99.90
7574;DHT22;3828;48.922;9.116;2022-09-09T00:55:26;15.90;99.90
7574;DHT22;3828;48.922;9.116;2022-09-09T00:58:06;17.20;99.90
7574;DHT22;3828;48.922;9.116;2022-09-09T01:00:50;16.00;99.90
7574;DHT22;3828;48.922;9.116;2022-09-09T01:03:22;16.10;99.90
7574;DHT22;3828;48.922;9.116;2022-09-09T01:06:01;17.10;99.90
7574;DHT22;3828;48.922;9.116;2022-09-09T01:09:02;16.30;99.90
7574;DHT22;3828;48.922;9.116;2022-09-09T01:11:38;16.30;99.90
7574;DHT22;3828;48.922;9.116;2022-09-09T01:14:18;16.30;99.90
7574;DHT22;3828;48.922;9.116;2022-09-09T01:16:48;16.40;99.90
7574;DHT22;3828;48.922;9.116;2022-09-09T01:19:24;19.00;99.90
7574;DHT22;3828;48.922;9.116;2022-09-09T01:22:03;16.50;99.90
7574;DHT22;3828;48.922;9.116;2022-09-09T01:24:38;16.60;99.90
7574;DHT22;3828;48.922;9.116;2022-09-09T01:27:13;16.50;99.90
7574;DHT22;3828;48.922;9.116;2022-09-09T01:29:42;16.50;99.90
7574;DHT22;3828;48.922;9.116;2022-09-09T01:32:38;18.80;99.90
7574;DHT22;3828;48.922;9.116;2022-09-09T01:35:39;16.40;99.90
7574;DHT22;3828;48.922;9.116;2022-09-09T01:38:08;16.40;99.90
7574;DHT22;3828;48.922;9.116;2022-09-09T01:40:35;16.40;99.90
7574;DHT22;3828;48.922;9.116;2022-09-09T01:43:03;16.40;99.90
7574;DHT22;3828;48.922;9.116;2022-09-09T01:45:32;16.40;99.90
7574;DHT22;3828;48.922;9.116;2022-09-09T01:48:02;18.80;99.90
7574;DHT22;3828;48.922;9.116;2022-09-09T01:50:30;16.30;99.90
7574;DHT22;3828;48.922;9.116;2022-09-09T01:52:58;16.30;99.90
7574;DHT22;3828;48.922;9.116;2022-09-09T01:55:30;16.30;99.90
7574;DHT22;3828;48.922;9.116;2022-09-09T01:58:11;16.30;99.90
7574;DHT22;3828;48.922;9.116;2022-09-09T02:00:45;17.70;99.90
7574;DHT22;3828;48.922;9.116;2022-09-09T02:03:21;16.40;99.90
7574;DHT22;3828;48.922;9.116;2022-09-09T02:05:58;18.50;99.90
7574;DHT22;3828;48.922;9.116;2022-09-09T02:08:33;16.30;99.90
7574;DHT22;3828;48.922;9.116;2022-09-09T02:11:06;16.30;99.90
7574;DHT22;3828;48.922;9.116;2022-09-09T02:13:39;16.20;99.90
7574;DHT22;3828;48.922;9.116;2022-09-09T02:16:08;16.90;99.90
7574;DHT22;3828;48.922;9.116;2022-09-09T02:18:42;16.30;99.90
7574;DHT22;3828;48.922;9.116;2022-09-09T02:21:12;16.50;99.90
7574;DHT22;3828;48.922;9.116;2022-09-09T02:23:41;16.50;99.90
7574;DHT22;3828;48.922;9.116;2022-09-09T02:26:10;16.20;99.90
7574;DHT22;3828;48.922;9.116;2022-09-09T02:28:48;16.30;99.90
7574;DHT22;3828;48.922;9.116;2022-09-09T02:31:17;16.30;99.90
7574;DHT22;3828;48.922;9.116;2022-09-09T02:33:49;18.40;99.90
7574;DHT22;3828;48.922;9.116;2022-09-09T02:36:19;16.40;99.90
7574;DHT22;3828;48.922;9.116;2022-09-09T02:43:49;16.20;99.90
7574;DHT22;3828;48.922;9.116;2022-09-09T02:46:27;16.20;99.90
7574;DHT22;3828;48.922;9.116;2022-09-09T02:49:01;16.00;99.90
7574;DHT22;3828;48.922;9.116;2022-09-09T02:51:34;17.50;99.90
7574;DHT22;3828;48.922;9.116;2022-09-09T02:54:10;15.80;99.90
7574;DHT22;3828;48.922;9.116;2022-09-09T02:56:42;15.70;99.90
7574;DHT22;3828;48.922;9.116;2022-09-09T02:59:13;15.70;99.90
7574;DHT22;3828;48.922;9.116;2022-09-09T03:01:40;15.60;99.90
7574;DHT22;3828;48.922;9.116;2022-09-09T03:04:07;17.00;99.90
7574;DHT22;3828;48.922;9.116;2022-09-09T03:06:34;15.50;99.90
7574;DHT22;3828;48.922;9.116;2022-09-09T03:09:02;15.40;99.90
7574;DHT22;3828;48.922;9.116;2022-09-09T03:11:29;15.40;99.90
7574;DHT22;3828;48.922;9.116;2022-09-09T03:13:56;15.40;99.90
7574;DHT22;3828;48.922;9.116;2022-09-09T03:16:24;15.30;99.90
7574;DHT22;3828;48.922;9.116;2022-09-09T03:18:51;15.30;99.90
7574;DHT22;3828;48.922;9.116;2022-09-09T03:21:18;16.20;99.90
7574;DHT22;3828;48.922;9.116;2022-09-09T03:23:47;15.20;99.90
7574;DHT22;3828;48.922;9.116;2022-09-09T03:26:14;16.00;99.90
7574;DHT22;3828;48.922;9.116;2022-09-09T03:28:41;15.10;99.90
7574;DHT22;3828;48.922;9.116;2022-09-09T03:31:09;15.30;99.90
7574;DHT22;3828;48.922;9.116;2022-09-09T03:33:38;16.70;99.90
7574;DHT22;3828;48.922;9.116;2022-09-09T03:36:08;14.80;99.90
7574;DHT22;3828;48.922;9.116;2022-09-09T03:38:36;14.70;99.90
7574;DHT22;3828;48.922;9.116;2022-09-09T03:41:03;15.60;99.90
7574;DHT22;3828;48.922;9.116;2022-09-09T03:43:33;14.60;99.90
7574;DHT22;3828;48.922;9.116;2022-09-09T03:46:00;14.90;99.90
7574;DHT22;3828;48.922;9.116;2022-09-09T03:48:27;17.40;99.90
7574;DHT22;3828;48.922;9.116;2022-09-09T03:50:56;17.40;99.90
7574;DHT22;3828;48.922;9.116;2022-09-09T03:53:26;14.70;99.90
7574;DHT22;3828;48.922;9.116;2022-09-09T03:55:55;15.20;99.90
7574;DHT22;3828;48.922;9.116;2022-09-09T03:58:26;14.80;99.90
7574;DHT22;3828;48.922;9.116;2022-09-09T04:00:54;17.80;99.90
7574;DHT22;3828;48.922;9.116;2022-09-09T04:03:21;15.20;99.90
7574;DHT22;3828;48.922;9.116;2022-09-09T04:05:50;15.00;99.90
7574;DHT22;3828;48.922;9.116;2022-09-09T04:08:18;15.10;99.90
7574;DHT22;3828;48.922;9.116;2022-09-09T04:10:46;15.10;99.90
7574;DHT22;3828;48.922;9.116;2022-09-09T04:13:13;15.90;99.90
7574;DHT22;3828;48.922;9.116;2022-09-09T04:15:42;16.80;99.90
7574;DHT22;3828;48.922;9.116;2022-09-09T04:18:09;15.20;99.90
7574;DHT22;3828;48.922;9.116;2022-09-09T04:20:43;15.20;99.90
7574;DHT22;3828;48.922;9.116;2022-09-09T04:23:12;15.20;99.90
7574;DHT22;3828;48.922;9.116;2022-09-09T04:25:44;15.20;99.90
7574;DHT22;3828;48.922;9.116;2022-09-09T04:28:12;15.20;99.90
7574;DHT22;3828;48.922;9.116;2022-09-09T04:30:39;16.10;99.90
7574;DHT22;3828;48.922;9.116;2022-09-09T04:33:07;15.40;99.90
7574;DHT22;3828;48.922;9.116;2022-09-09T04:35:35;15.40;99.90
7574;DHT22;3828;48.922;9.116;2022-09-09T04:38:02;16.80;99.90
7574;DHT22;3828;48.922;9.116;2022-09-09T04:40:29;15.50;99.90
7574;DHT22;3828;48.922;9.116;2022-09-09T04:42:59;15.50;99.90
7574;DHT22;3828;48.922;9.116;2022-09-09T04:45:26;15.60;99.90
7574;DHT22;3828;48.922;9.116;2022-09-09T04:47:53;16.40;99.90
7574;DHT22;3828;48.922;9.116;2022-09-09T04:50:20;16.50;99.90
7574;DHT22;3828;48.922;9.116;2022-09-09T04:52:51;19.70;99.90
7574;DHT22;3828;48.922;9.116;2022-09-09T04:55:34;15.80;99.90
7574;DHT22;3828;48.922;9.116;2022-09-09T04:58:18;15.70;99.90
7574;DHT22;3828;48.922;9.116;2022-09-09T05:01:26;15.70;99.90
7574;DHT22;3828;48.922;9.116;2022-09-09T05:03:58;15.70;99.90
7574;DHT22;3828;48.922;9.116;2022-09-09T05:06:26;15.60;99.90
7574;DHT22;3828;48.922;9.116;2022-09-09T05:09:13;15.70;99.90
7574;DHT22;3828;48.922;9.116;2022-09-09T05:16:53;15.70;99.90
7574;DHT22;3828;48.922;9.116;2022-09-09T05:19:34;15.70;99.90
7574;DHT22;3828;48.922;9.116;2022-09-09T05:22:01;16.40;99.90
7574;DHT22;3828;48.922;9.116;2022-09-09T05:24:28;15.80;99.90
7574;DHT22;3828;48.922;9.116;2022-09-09T05:26:58;18.50;99.90
7574;DHT22;3828;48.922;9.116;2022-09-09T05:29:27;16.90;99.90
7574;DHT22;3828;48.922;9.116;2022-09-09T05:31:54;15.90;99.90
7574;DHT22;3828;48.922;9.116;2022-09-09T05:34:21;16.00;99.90
7574;DHT22;3828;48.922;9.116;2022-09-09T05:36:48;16.00;99.90
7574;DHT22;3828;48.922;9.116;2022-09-09T05:39:23;16.30;99.90
7574;DHT22;3828;48.922;9.116;2022-09-09T05:41:54;16.20;99.90
7574;DHT22;3828;48.922;9.116;2022-09-09T05:44:21;16.20;99.90
7574;DHT22;3828;48.922;9.116;2022-09-09T05:46:50;18.70;99.90
7574;DHT22;3828;48.922;9.116;2022-09-09T05:49:16;17.80;99.90
7574;DHT22;3828;48.922;9.116;2022-09-09T05:51:43;16.40;99.90
7574;DHT22;3828;48.922;9.116;2022-09-09T05:54:10;16.50;99.90
7574;DHT22;3828;48.922;9.116;2022-09-09T05:56:38;16.50;99.90
7574;DHT22;3828;48.922;9.116;2022-09-09T05:59:05;18.40;99.90
7574;DHT22;3828;48.922;9.116;2022-09-09T06:01:33;20.30;99.90
7574;DHT22;3828;48.922;9.116;2022-09-09T06:04:02;16.70;99.90
7574;DHT22;3828;48.922;9.116;2022-09-09T06:06:32;16.70;99.90
7574;DHT22;3828;48.922;9.116;2022-09-09T06:09:04;19.60;99.90
7574;DHT22;3828;48.922;9.116;2022-09-09T06:14:02;16.70;99.90
7574;DHT22;3828;48.922;9.116;2022-09-09T06:16:30;16.70;99.90
7574;DHT22;3828;48.922;9.116;2022-09-09T06:18:58;17.20;99.90
7574;DHT22;3828;48.922;9.116;2022-09-09T06:21:28;16.70;99.90
7574;DHT22;3828;48.922;9.116;2022-09-09T06:23:55;16.70;99.90
7574;DHT22;3828;48.922;9.116;2022-09-09T06:26:24;17.70;99.90
7574;DHT22;3828;48.922;9.116;2022-09-09T06:28:53;19.90;99.90
7574;DHT22;3828;48.922;9.116;2022-09-09T06:31:21;17.50;99.90
7574;DHT22;3828;48.922;9.116;2022-09-09T06:33:49;19.60;99.90
7574;DHT22;3828;48.922;9.116;2022-09-09T06:36:18;19.50;99.90
7574;DHT22;3828;48.922;9.116;2022-09-09T06:38:47;20.60;99.90
7574;DHT22;3828;48.922;9.116;2022-09-09T06:41:16;20.00;99.90
7574;DHT22;3828;48.922;9.116;2022-09-09T06:43:44;19.20;99.90
7574;DHT22;3828;48.922;9.116;2022-09-09T06:46:15;17.00;99.90
7574;DHT22;3828;48.922;9.116;2022-09-09T06:48:54;15.00;99.90
7574;DHT22;3828;48.922;9.116;2022-09-09T06:51:24;19.80;99.90
7574;DHT22;3828;48.922;9.116;2022-09-09T06:54:19;17.10;99.90
7574;DHT22;3828;48.922;9.116;2022-09-09T06:56:47;17.10;99.90
7574;DHT22;3828;48.922;9.116;2022-09-09T06:59:15;17.80;99.90
7574;DHT22;3828;48.922;9.116;2022-09-09T07:01:43;17.30;99.90
7574;DHT22;3828;48.922;9.116;2022-09-09T07:04:10;18.30;99.90
7574;DHT22;3828;48.922;9.116;2022-09-09T07:06:39;21.00;99.90
7574;DHT22;3828;48.922;9.116;2022-09-09T07:09:08;20.60;99.90
7574;DHT22;3828;48.922;9.116;2022-09-09T07:11:39;17.30;99.90
7574;DHT22;3828;48.922;9.116;2022-09-09T07:14:07;18.60;99.90
7574;DHT22;3828;48.922;9.116;2022-09-09T07:16:34;18.90;99.90
7574;DHT22;3828;48.922;9.116;2022-09-09T07:19:02;18.10;99.90
7574;DHT22;3828;48.922;9.116;2022-09-09T07:21:31;18.30;99.90
7574;DHT22;3828;48.922;9.116;2022-09-09T07:23:58;18.40;99.90
7574;DHT22;3828;48.922;9.116;2022-09-09T07:29:05;22.40;99.90
7574;DHT22;3828;48.922;9.116;2022-09-09T07:31:34;18.70;99.90
7574;DHT22;3828;48.922;9.116;2022-09-09T07:34:02;19.30;99.90
7574;DHT22;3828;48.922;9.116;2022-09-09T07:36:31;18.60;99.90
7574;DHT22;3828;48.922;9.116;2022-09-09T07:38:59;18.70;99.90
7574;DHT22;3828;48.922;9.116;2022-09-09T07:41:29;18.90;99.90
7574;DHT22;3828;48.922;9.116;2022-09-09T07:43:57;19.40;99.90
7574;DHT22;3828;48.922;9.116;2022-09-09T07:46:26;21.10;99.90
7574;DHT22;3828;48.922;9.116;2022-09-09T07:48:55;20.20;99.90
7574;DHT22;3828;48.922;9.116;2022-09-09T07:51:24;23.90;99.90
7574;DHT22;3828;48.922;9.116;2022-09-09T07:53:53;24.10;99.90
7574;DHT22;3828;48.922;9.116;2022-09-09T07:56:24;20.70;99.90
7574;DHT22;3828;48.922;9.116;2022-09-09T07:58:52;20.90;99.90
7574;DHT22;3828;48.922;9.116;2022-09-09T08:01:22;21.20;99.90
7574;DHT22;3828;48.922;9.116;2022-09-09T08:03:55;21.60;99.90
7574;DHT22;3828;48.922;9.116;2022-09-09T08:06:24;21.60;99.90
7574;DHT22;3828;48.922;9.116;2022-09-09T08:08:53;21.60;99.90
7574;DHT22;3828;48.922;9.116;2022-09-09T08:11:23;22.70;99.90
7574;DHT22;3828;48.922;9.116;2022-09-09T08:13:51;21.80;99.90
7574;DHT22;3828;48.922;9.116;2022-09-09T08:16:19;26.00;99.90
7574;DHT22;3828;48.922;9.116;2022-09-09T08:18:48;22.10;99.90
7574;DHT22;3828;48.922;9.116;2022-09-09T08:21:18;23.80;99.90
7574;DHT22;3828;48.922;9.116;2022-09-09T08:23:47;22.50;99.90
7574;DHT22;3828;48.922;9.116;2022-09-09T08:26:16;22.60;99.90
7574;DHT22;3828;48.922;9.116;2022-09-09T08:28:43;23.70;99.90
7574;DHT22;3828;48.922;9.116;2022-09-09T08:31:12;26.40;99.90
7574;DHT22;3828;48.922;9.116;2022-09-09T08:33:39;22.60;99.90
7574;DHT22;3828;48.922;9.116;2022-09-09T08:36:10;22.60;99.90
7574;DHT22;3828;48.922;9.116;2022-09-09T08:38:38;22.40;99.90
7574;DHT22;3828;48.922;9.116;2022-09-09T08:41:39;22.40;99.90
7574;DHT22;3828;48.922;9.116;2022-09-09T08:44:11;26.70;99.90
7574;DHT22;3828;48.922;9.116;2022-09-09T08:46:46;23.10;99.90
7574;DHT22;3828;48.922;9.116;2022-09-09T08:49:38;23.60;99.90
7574;DHT22;3828;48.922;9.116;2022-09-09T08:52:12;23.90;99.90
7574;DHT22;3828;48.922;9.116;2022-09-09T08:54:42;26.00;99.90
7574;DHT22;3828;48.922;9.116;2022-09-09T08:57:13;24.30;99.90
7574;DHT22;3828;48.922;9.116;2022-09-09T08:59:41;24.40;99.90
7574;DHT22;3828;48.922;9.116;2022-09-09T09:02:15;24.20;99.90
7574;DHT22;3828;48.922;9.116;2022-09-09T09:04:58;24.20;99.90
7574;DHT22;3828;48.922;9.116;2022-09-09T09:07:34;24.60;99.90
7574;DHT22;3828;48.922;9.116;2022-09-09T09:10:10;23.40;99.90
7574;DHT22;3828;48.922;9.116;2022-09-09T09:12:41;23.20;99.90
7574;DHT22;3828;48.922;9.116;2022-09-09T09:15:14;23.00;99.90
7574;DHT22;3828;48.922;9.116;2022-09-09T09:17:43;24.10;99.90
7574;DHT22;3828;48.922;9.116;2022-09-09T09:20:12;23.20;99.90
7574;DHT22;3828;48.922;9.116;2022-09-09T09:22:45;23.40;99.90
7574;DHT22;3828;48.922;9.116;2022-09-09T09:25:17;23.60;99.90
7574;DHT22;3828;48.922;9.116;2022-09-09T09:27:52;23.50;99.90
7574;DHT22;3828;48.922;9.116;2022-09-09T09:30:23;23.50;99.90
7574;DHT22;3828;48.922;9.116;2022-09-09T09:32:54;23.70;99.90
7574;DHT22;3828;48.922;9.116;2022-09-09T09:35:21;23.80;99.90
7574;DHT22;3828;48.922;9.116;2022-09-09T09:37:51;24.20;99.90
7574;DHT22;3828;48.922;9.116;2022-09-09T09:40:21;24.40;99.90
7574;DHT22;3828;48.922;9.116;2022-09-09T09:42:51;24.20;99.90
7574;DHT22;3828;48.922;9.116;2022-09-09T09:45:26;23.70;99.90
7574;DHT22;3828;48.922;9.116;2022-09-09T09:48:02;23.40;99.90
7574;DHT22;3828;48.922;9.116;2022-09-09T09:50:30;23.20;99.90
7574;DHT22;3828;48.922;9.116;2022-09-09T09:52:59;22.80;99.90
7574;DHT22;3828;48.922;9.116;2022-09-09T09:55:29;22.80;99.90
7574;DHT22;3828;48.922;9.116;2022-09-09T09:58:01;22.60;99.90
7574;DHT22;3828;48.922;9.116;2022-09-09T10:00:29;24.40;99.90
7574;DHT22;3828;48.922;9.116;2022-09-09T10:02:55;23.30;99.90
7574;DHT22;3828;48.922;9.116;2022-09-09T10:05:24;24.00;99.90
7574;DHT22;3828;48.922;9.116;2022-09-09T10:08:05;26.20;99.90
7574;DHT22;3828;48.922;9.116;2022-09-09T10:11:07;25.20;99.90
7574;DHT22;3828;48.922;9.116;2022-09-09T10:13:48;26.00;99.90
7574;DHT22;3828;48.922;9.116;2022-09-09T10:16:25;26.60;99.90
7574;DHT22;3828;48.922;9.116;2022-09-09T10:19:00;27.20;99.90
7574;DHT22;3828;48.922;9.116;2022-09-09T10:21:54;27.20;99.90
7574;DHT22;3828;48.922;9.116;2022-09-09T10:24:46;24.60;99.90
7574;DHT22;3828;48.922;9.116;2022-09-09T10:27:21;23.10;99.90
7574;DHT22;3828;48.922;9.116;2022-09-09T10:30:01;24.40;99.90
7574;DHT22;3828;48.922;9.116;2022-09-09T10:32:38;22.50;99.90
7574;DHT22;3828;48.922;9.116;2022-09-09T10:35:11;22.20;99.90
7574;DHT22;3828;48.922;9.116;2022-09-09T10:40:48;21.70;99.90
7574;DHT22;3828;48.922;9.116;2022-09-09T10:43:35;21.60;99.90
7574;DHT22;3828;48.922;9.116;2022-09-09T10:46:10;25.70;99.90
7574;DHT22;3828;48.922;9.116;2022-09-09T10:48:52;21.70;99.90
7574;DHT22;3828;48.922;9.116;2022-09-09T10:51:30;21.70;99.90
7574;DHT22;3828;48.922;9.116;2022-09-09T10:54:29;21.80;99.90
7574;DHT22;3828;48.922;9.116;2022-09-09T10:57:02;21.40;99.90
7574;DHT22;3828;48.922;9.116;2022-09-09T10:59:35;21.30;99.90
7574;DHT22;3828;48.922;9.116;2022-09-09T11:02:10;21.10;99.90
7574;DHT22;3828;48.922;9.116;2022-09-09T11:04:42;21.00;99.90
7574;DHT22;3828;48.922;9.116;2022-09-09T11:07:13;20.90;99.90
7574;DHT22;3828;48.922;9.116;2022-09-09T11:09:47;20.70;99.90
7574;DHT22;3828;48.922;9.116;2022-09-09T11:12:19;20.70;99.90
7574;DHT22;3828;48.922;9.116;2022-09-09T11:14:50;20.40;99.90
7574;DHT22;3828;48.922;9.116;2022-09-09T11:17:23;20.20;99.90
7574;DHT22;3828;48.922;9.116;2022-09-09T11:19:50;22.90;99.90
7574;DHT22;3828;48.922;9.116;2022-09-09T11:22:22;20.00;99.90
7574;DHT22;3828;48.922;9.116;2022-09-09T11:24:54;19.30;99.90
7574;DHT22;3828;48.922;9.116;2022-09-09T11:27:26;22.90;99.90
7574;DHT22;3828;48.922;9.116;2022-09-09T11:30:15;19.20;99.90
7574;DHT22;3828;48.922;9.116;2022-09-09T11:33:18;19.10;99.90
7574;DHT22;3828;48.922;9.116;2022-09-09T11:36:19;19.10;99.90
7574;DHT22;3828;48.922;9.116;2022-09-09T11:38:51;19.40;99.90
7574;DHT22;3828;48.922;9.116;2022-09-09T11:41:20;19.00;99.90
7574;DHT22;3828;48.922;9.116;2022-09-09T11:43:48;22.70;99.90
7574;DHT22;3828;48.922;9.116;2022-09-09T11:46:19;18.90;99.90
7574;DHT22;3828;48.922;9.116;2022-09-09T11:48:58;19.80;99.90
7574;DHT22;3828;48.922;9.116;2022-09-09T11:51:26;21.70;99.90
7574;DHT22;3828;48.922;9.116;2022-09-09T11:53:56;18.90;99.90
7574;DHT22;3828;48.922;9.116;2022-09-09T11:56:26;20.30;99.90
7574;DHT22;3828;48.922;9.116;2022-09-09T11:58:59;19.20;99.90
7574;DHT22;3828;48.922;9.116;2022-09-09T12:01:39;19.30;99.90
7574;DHT22;3828;48.922;9.116;2022-09-09T12:04:15;19.60;99.90
7574;DHT22;3828;48.922;9.116;2022-09-09T12:06:44;19.90;99.90
7574;DHT22;3828;48.922;9.116;2022-09-09T12:09:25;20.20;99.90
7574;DHT22;3828;48.922;9.116;2022-09-09T12:12:05;20.50;99.90
7574;DHT22;3828;48.922;9.116;2022-09-09T12:14:37;21.20;99.90
7574;DHT22;3828;48.922;9.116;2022-09-09T12:17:18;21.10;99.90
7574;DHT22;3828;48.922;9.116;2022-09-09T12:19:46;21.80;99.90
7574;DHT22;3828;48.922;9.116;2022-09-09T12:22:21;22.60;99.90
7574;DHT22;3828;48.922;9.116;2022-09-09T12:24:57;23.90;99.90
7574;DHT22;3828;48.922;9.116;2022-09-09T12:27:31;24.40;99.90
7574;DHT22;3828;48.922;9.116;2022-09-09T12:30:04;24.80;99.90
7574;DHT22;3828;48.922;9.116;2022-09-09T12:32:33;25.60;99.90
7574;DHT22;3828;48.922;9.116;2022-09-09T12:35:02;26.80;99.90
7574;DHT22;3828;48.922;9.116;2022-09-09T12:37:33;26.40;99.90
7574;DHT22;3828;48.922;9.116;2022-09-09T12:40:02;26.80;99.90
7574;DHT22;3828;48.922;9.116;2022-09-09T12:42:30;26.50;99.90
7574;DHT22;3828;48.922;9.116;2022-09-09T12:45:00;26.50;99.90
7574;DHT22;3828;48.922;9.116;2022-09-09T12:47:38;26.40;99.90
7574;DHT22;3828;48.922;9.116;2022-09-09T12:50:16;26.60;99.90
7574;DHT22;3828;48.922;9.116;2022-09-09T12:52:44;26.50;99.90
7574;DHT22;3828;48.922;9.116;2022-09-09T12:55:17;26.60;99.90
7574;DHT22;3828;48.922;9.116;2022-09-09T12:57:45;26.80;99.90
7574;DHT22;3828;48.922;9.116;2022-09-09T13:00:17;26.90;99.90
7574;DHT22;3828;48.922;9.116;2022-09-09T13:03:01;26.80;99.90
7574;DHT22;3828;48.922;9.116;2022-09-09T13:05:35;27.10;99.90
7574;DHT22;3828;48.922;9.116;2022-09-09T13:08:03;27.20;99.90
7574;DHT22;3828;48.922;9.116;2022-09-09T13:10:33;28.00;99.90
7574;DHT22;3828;48.922;9.116;2022-09-09T13:13:02;28.30;99.90
7574;DHT22;3828;48.922;9.116;2022-09-09T13:15:31;28.20;99.90
7574;DHT22;3828;48.922;9.116;2022-09-09T13:18:15;28.20;99.90
7574;DHT22;3828;48.922;9.116;2022-09-09T13:20:46;26.80;99.90
7574;DHT22;3828;48.922;9.116;2022-09-09T13:23:35;27.30;99.90
7574;DHT22;3828;48.922;9.116;2022-09-09T13:26:04;24.70;99.90
7574;DHT22;3828;48.922;9.116;2022-09-09T13:28:31;24.30;99.90
7574;DHT22;3828;48.922;9.116;2022-09-09T13:30:59;25.10;99.90
7574;DHT22;3828;48.922;9.116;2022-09-09T13:33:33;25.20;99.90
7574;DHT22;3828;48.922;9.116;2022-09-09T13:36:02;24.90;99.90
7574;DHT22;3828;48.922;9.116;2022-09-09T13:38:32;24.50;99.90
7574;DHT22;3828;48.922;9.116;2022-09-09T13:41:02;23.90;99.90
7574;DHT22;3828;48.922;9.116;2022-09-09T13:43:31;23.60;99.90
7574;DHT22;3828;48.922;9.116;2022-09-09T13:46:01;24.20;99.90
7574;DHT22;3828;48.922;9.116;2022-09-09T13:48:28;24.00;99.90
7574;DHT22;3828;48.922;9.116;2022-09-09T13:51:00;25.30;99.90
7574;DHT22;3828;48.922;9.116;2022-09-09T13:53:28;26.10;99.90
7574;DHT22;3828;48.922;9.116;2022-09-09T13:55:56;26.10;99.90
7574;DHT22;3828;48.922;9.116;2022-09-09T13:58:24;27.40;99.90
7574;DHT22;3828;48.922;9.116;2022-09-09T14:00:51;26.50;99.90
7574;DHT22;3828;48.922;9.116;2022-09-09T14:03:18;26.50;99.90
7574;DHT22;3828;48.922;9.116;2022-09-09T14:05:45;25.80;99.90
7574;DHT22;3828;48.922;9.116;2022-09-09T14:08:21;26.70;99.90
7574;DHT22;3828;48.922;9.116;2022-09-09T14:10:48;24.30;99.90
7574;DHT22;3828;48.922;9.116;2022-09-09T14:13:15;23.90;99.90
7574;DHT22;3828;48.922;9.116;2022-09-09T14:15:42;23.40;99.90
7574;DHT22;3828;48.922;9.116;2022-09-09T14:18:13;23.00;99.90
7574;DHT22;3828;48.922;9.116;2022-09-09T14:20:40;23.10;99.90
7574;DHT22;3828;48.922;9.116;2022-09-09T14:23:10;24.00;99.90
7574;DHT22;3828;48.922;9.116;2022-09-09T14:25:41;25.50;99.90
7574;DHT22;3828;48.922;9.116;2022-09-09T14:28:10;26.90;99.90
7574;DHT22;3828;48.922;9.116;2022-09-09T14:30:38;27.80;99.90
7574;DHT22;3828;48.922;9.116;2022-09-09T14:33:05;27.70;99.90
7574;DHT22;3828;48.922;9.116;2022-09-09T14:35:32;26.90;99.90
7574;DHT22;3828;48.922;9.116;2022-09-09T14:38:03;25.80;99.90
7574;DHT22;3828;48.922;9.116;2022-09-09T14:40:30;25.60;99.90
7574;DHT22;3828;48.922;9.116;2022-09-09T14:42:58;25.60;99.90
7574;DHT22;3828;48.922;9.116;2022-09-09T14:45:25;25.60;99.90
7574;DHT22;3828;48.922;9.116;2022-09-09T14:47:51;25.20;99.90
7574;DHT22;3828;48.922;9.116;2022-09-09T14:50:20;24.80;99.90
7574;DHT22;3828;48.922;9.116;2022-09-09T14:52:55;24.10;99.90
7574;DHT22;3828;48.922;9.116;2022-09-09T14:55:22;26.10;99.90
7574;DHT22;3828;48.922;9.116;2022-09-09T14:57:48;23.30;99.90
7574;DHT22;3828;48.922;9.116;2022-09-09T15:00:17;23.40;99.90
7574;DHT22;3828;48.922;9.116;2022-09-09T15:02:44;23.20;99.90
7574;DHT22;3828;48.922;9.116;2022-09-09T15:05:10;23.20;99.90
7574;DHT22;3828;48.922;9.116;2022-09-09T15:07:37;24.10;99.90
7574;DHT22;3828;48.922;9.116;2022-09-09T15:10:05;24.60;99.90
7574;DHT22;3828;48.922;9.116;2022-09-09T15:12:32;22.40;99.90
7574;DHT22;3828;48.922;9.116;2022-09-09T15:15:01;22.40;99.90
7574;DHT22;3828;48.922;9.116;2022-09-09T15:17:29;22.30;99.90
7574;DHT22;3828;48.922;9.116;2022-09-09T15:19:56;22.80;99.90
7574;DHT22;3828;48.922;9.116;2022-09-09T15:22:22;23.20;99.90
7574;DHT22;3828;48.922;9.116;2022-09-09T15:24:49;23.10;99.90
7574;DHT22;3828;48.922;9.116;2022-09-09T15:27:17;25.10;99.90
7574;DHT22;3828;48.922;9.116;2022-09-09T15:29:44;22.60;99.90
7574;DHT22;3828;48.922;9.116;2022-09-09T15:32:12;22.50;99.90
7574;DHT22;3828;48.922;9.116;2022-09-09T15:34:40;26.30;99.90
7574;DHT22;3828;48.922;9.116;2022-09-09T15:37:10;24.20;99.90
7574;DHT22;3828;48.922;9.116;2022-09-09T15:39:39;25.10;99.90
7574;DHT22;3828;48.922;9.116;2022-09-09T15:42:06;25.20;99.90
7574;DHT22;3828;48.922;9.116;2022-09-09T15:44:38;24.40;99.90
7574;DHT22;3828;48.922;9.116;2022-09-09T15:47:05;23.60;99.90
7574;DHT22;3828;48.922;9.116;2022-09-09T15:49:32;23.00;99.90
7574;DHT22;3828;48.922;9.116;2022-09-09T15:52:08;22.50;99.90
7574;DHT22;3828;48.922;9.116;2022-09-09T15:54:37;22.00;99.90
7574;DHT22;3828;48.922;9.116;2022-09-09T15:57:05;21.70;99.90
7574;DHT22;3828;48.922;9.116;2022-09-09T15:59:33;21.60;99.90
7574;DHT22;3828;48.922;9.116;2022-09-09T16:02:00;21.30;99.90
7574;DHT22;3828;48.922;9.116;2022-09-09T16:04:27;21.20;99.90
7574;DHT22;3828;48.922;9.116;2022-09-09T16:06:57;21.10;99.90
7574;DHT22;3828;48.922;9.116;2022-09-09T16:09:27;21.00;99.90
7574;DHT22;3828;48.922;9.116;2022-09-09T16:11:56;21.00;99.90
7574;DHT22;3828;48.922;9.116;2022-09-09T16:14:23;20.90;99.90
7574;DHT22;3828;48.922;9.116;2022-09-09T16:16:54;20.90;99.90
7574;DHT22;3828;48.922;9.116;2022-09-09T16:19:21;22.00;99.90
7574;DHT22;3828;48.922;9.116;2022-09-09T16:21:49;20.20;99.90
7574;DHT22;3828;48.922;9.116;2022-09-09T16:24:17;19.70;99.90
7574;DHT22;3828;48.922;9.116;2022-09-09T16:26:49;19.20;99.90
7574;DHT22;3828;48.922;9.116;2022-09-09T16:29:17;18.40;99.90
7574;DHT22;3828;48.922;9.116;2022-09-09T16:31:44;17.50;99.90
7574;DHT22;3828;48.922;9.116;2022-09-09T16:34:12;16.60;99.90
7574;DHT22;3828;48.922;9.116;2022-09-09T16:36:40;16.00;99.90
7574;DHT22;3828;48.922;9.116;2022-09-09T16:39:09;20.20;99.90
7574;DHT22;3828;48.922;9.116;2022-09-09T16:41:37;17.10;99.90
7574;DHT22;3828;48.922;9.116;2022-09-09T16:44:07;17.40;99.90
7574;DHT22;3828;48.922;9.116;2022-09-09T16:46:36;15.60;99.90
7574;DHT22;3828;48.922;9.116;2022-09-09T16:49:05;16.90;99.90